sensor_id;sensor_type;location;lat;lon;timestamp;temperature;humidity
20714;DHT22;10518;50.742;4.226;2022-10-17T00:02:16;16.90;99.90
20714;DHT22;10518;50.742;4.226;2022-10-17T00:04:41;16.70;99.90
20714;DHT22;10518;50.742;4.226;2022-10-17T00:07:07;16.60;99.90
20714;DHT22;10518;50.742;4.226;2022-10-17T00:09:32;16.70;99.90
20714;DHT22;10518;50.742;4.226;2022-10-17T00:11:58;16.70;99.90
20714;DHT22;10518;50.742;4.226;2022-10-17T00:14:23;16.70;99.90
20714;DHT22;10518;50.742;4.226;2022-10-17T00:16:49;16.80;99.90
20714;DHT22;10518;50.742;4.226;2022-10-17T00:19:14;16.90;99.90
20714;DHT22;10518;50.742;4.226;2022-10-17T00:21:40;17.20;99.90
20714;DHT22;10518;50.742;4.226;2022-10-17T00:24:06;17.30;99.90
20714;DHT22;10518;50.742;4.226;2022-10-17T00:26:31;17.30;99.90
20714;DHT22;10518;50.742;4.226;2022-10-17T00:28:57;17.30;99.90
20714;DHT22;10518;50.742;4.226;2022-10-17T00:31:23;17.10;99.90
20714;DHT22;10518;50.742;4.226;2022-10-17T00:33:50;17.10;99.90
20714;DHT22;10518;50.742;4.226;2022-10-17T00:36:26;17.00;99.90
20714;DHT22;10518;50.742;4.226;2022-10-17T00:38:54;16.90;99.90
20714;DHT22;10518;50.742;4.226;2022-10-17T00:41:24;16.90;99.90
20714;DHT22;10518;50.742;4.226;2022-10-17T00:46:18;17.00;99.90
20714;DHT22;10518;50.742;4.226;2022-10-17T00:48:44;17.00;99.90
20714;DHT22;10518;50.742;4.226;2022-10-17T00:51:10;17.00;99.90
20714;DHT22;10518;50.742;4.226;2022-10-17T00:53:36;17.00;99.90
20714;DHT22;10518;50.742;4.226;2022-10-17T00:56:03;17.00;99.90
20714;DHT22;10518;50.742;4.226;2022-10-17T00:58:29;17.10;99.90
20714;DHT22;10518;50.742;4.226;2022-10-17T01:00:55;17.10;99.90
20714;DHT22;10518;50.742;4.226;2022-10-17T01:03:20;17.30;99.90
20714;DHT22;10518;50.742;4.226;2022-10-17T01:05:46;17.40;99.90
20714;DHT22;10518;50.742;4.226;2022-10-17T01:08:12;17.60;99.90
20714;DHT22;10518;50.742;4.226;2022-10-17T01:13:44;17.40;99.90
20714;DHT22;10518;50.742;4.226;2022-10-17T01:16:18;17.30;99.90
20714;DHT22;10518;50.742;4.226;2022-10-17T01:21:43;17.40;99.90
20714;DHT22;10518;50.742;4.226;2022-10-17T01:32:59;17.50;99.90
20714;DHT22;10518;50.742;4.226;2022-10-17T01:35:29;17.70;99.90
20714;DHT22;10518;50.742;4.226;2022-10-17T01:38:09;17.80;99.90
20714;DHT22;10518;50.742;4.226;2022-10-17T01:41:06;18.00;99.90
20714;DHT22;10518;50.742;4.226;2022-10-17T01:43:42;17.90;99.90
20714;DHT22;10518;50.742;4.226;2022-10-17T01:46:17;17.80;99.90
20714;DHT22;10518;50.742;4.226;2022-10-17T01:48:45;17.80;99.90
20714;DHT22;10518;50.742;4.226;2022-10-17T01:51:39;18.00;99.90
20714;DHT22;10518;50.742;4.226;2022-10-17T01:54:13;18.10;99.90
20714;DHT22;10518;50.742;4.226;2022-10-17T01:56:41;17.90;99.90
20714;DHT22;10518;50.742;4.226;2022-10-17T01:59:16;17.80;99.90
20714;DHT22;10518;50.742;4.226;2022-10-17T02:01:47;17.90;99.90
20714;DHT22;10518;50.742;4.226;2022-10-17T02:04:13;17.70;99.90
20714;DHT22;10518;50.742;4.226;2022-10-17T02:06:40;17.80;99.90
20714;DHT22;10518;50.742;4.226;2022-10-17T02:09:25;17.70;99.90
20714;DHT22;10518;50.742;4.226;2022-10-17T02:20:05;18.00;99.90
20714;DHT22;10518;50.742;4.226;2022-10-17T02:28:11;17.60;99.90
20714;DHT22;10518;50.742;4.226;2022-10-17T02:30:42;17.50;99.90
20714;DHT22;10518;50.742;4.226;2022-10-17T02:35:51;17.70;99.90
20714;DHT22;10518;50.742;4.226;2022-10-17T02:38:19;17.80;99.90
20714;DHT22;10518;50.742;4.226;2022-10-17T02:40:46;17.70;99.90
20714;DHT22;10518;50.742;4.226;2022-10-17T02:43:13;18.00;99.90
20714;DHT22;10518;50.742;4.226;2022-10-17T02:45:39;18.10;99.90
20714;DHT22;10518;50.742;4.226;2022-10-17T02:48:14;18.00;99.90
20714;DHT22;10518;50.742;4.226;2022-10-17T02:53:31;17.80;99.90
20714;DHT22;10518;50.742;4.226;2022-10-17T02:56:03;17.80;99.90
20714;DHT22;10518;50.742;4.226;2022-10-17T02:58:32;17.80;99.90
20714;DHT22;10518;50.742;4.226;2022-10-17T03:00:59;17.80;99.90
20714;DHT22;10518;50.742;4.226;2022-10-17T03:03:27;17.70;99.90
20714;DHT22;10518;50.742;4.226;2022-10-17T03:05:53;17.60;99.90
20714;DHT22;10518;50.742;4.226;2022-10-17T03:08:20;17.70;99.90
20714;DHT22;10518;50.742;4.226;2022-10-17T03:10:46;17.80;99.90
20714;DHT22;10518;50.742;4.226;2022-10-17T03:13:12;17.90;99.90
20714;DHT22;10518;50.742;4.226;2022-10-17T03:15:38;17.80;99.90
20714;DHT22;10518;50.742;4.226;2022-10-17T03:18:04;17.70;99.90
20714;DHT22;10518;50.742;4.226;2022-10-17T03:20:29;17.70;99.90
20714;DHT22;10518;50.742;4.226;2022-10-17T03:22:55;17.80;99.90
20714;DHT22;10518;50.742;4.226;2022-10-17T03:25:21;17.70;99.90
20714;DHT22;10518;50.742;4.226;2022-10-17T03:27:46;17.80;99.90
20714;DHT22;10518;50.742;4.226;2022-10-17T03:30:12;18.00;99.90
20714;DHT22;10518;50.742;4.226;2022-10-17T03:32:37;18.00;99.90
20714;DHT22;10518;50.742;4.226;2022-10-17T03:35:03;17.90;99.90
20714;DHT22;10518;50.742;4.226;2022-10-17T03:37:29;18.00;99.90
20714;DHT22;10518;50.742;4.226;2022-10-17T03:39:55;18.10;99.90
20714;DHT22;10518;50.742;4.226;2022-10-17T03:42:20;18.30;99.90
20714;DHT22;10518;50.742;4.226;2022-10-17T03:44:46;18.30;99.90
20714;DHT22;10518;50.742;4.226;2022-10-17T03:47:11;18.20;99.90
20714;DHT22;10518;50.742;4.226;2022-10-17T03:49:37;18.20;99.90
20714;DHT22;10518;50.742;4.226;2022-10-17T03:52:02;18.30;99.90
20714;DHT22;10518;50.742;4.226;2022-10-17T03:54:28;18.40;99.90
20714;DHT22;10518;50.742;4.226;2022-10-17T03:56:54;18.40;99.90
20714;DHT22;10518;50.742;4.226;2022-10-17T03:59:19;18.10;99.90
20714;DHT22;10518;50.742;4.226;2022-10-17T04:01:45;18.10;99.90
20714;DHT22;10518;50.742;4.226;2022-10-17T04:04:10;18.10;99.90
20714;DHT22;10518;50.742;4.226;2022-10-17T04:06:36;18.10;99.90
20714;DHT22;10518;50.742;4.226;2022-10-17T04:09:03;18.10;99.90
20714;DHT22;10518;50.742;4.226;2022-10-17T04:11:29;18.20;99.90
20714;DHT22;10518;50.742;4.226;2022-10-17T04:13:56;18.10;99.90
20714;DHT22;10518;50.742;4.226;2022-10-17T04:16:22;17.90;99.90
20714;DHT22;10518;50.742;4.226;2022-10-17T04:18:53;17.70;99.90
20714;DHT22;10518;50.742;4.226;2022-10-17T04:21:20;17.70;99.90
20714;DHT22;10518;50.742;4.226;2022-10-17T04:23:45;17.90;99.90
20714;DHT22;10518;50.742;4.226;2022-10-17T04:26:11;17.90;99.90
20714;DHT22;10518;50.742;4.226;2022-10-17T04:28:37;17.70;99.90
20714;DHT22;10518;50.742;4.226;2022-10-17T04:31:05;17.80;99.90
20714;DHT22;10518;50.742;4.226;2022-10-17T04:33:31;17.80;99.90
20714;DHT22;10518;50.742;4.226;2022-10-17T04:36:01;18.00;99.90
20714;DHT22;10518;50.742;4.226;2022-10-17T04:38:27;18.20;99.90
20714;DHT22;10518;50.742;4.226;2022-10-17T04:40:55;18.00;99.90
20714;DHT22;10518;50.742;4.226;2022-10-17T04:43:21;17.90;99.90
20714;DHT22;10518;50.742;4.226;2022-10-17T04:45:46;18.00;99.90
20714;DHT22;10518;50.742;4.226;2022-10-17T04:48:12;17.90;99.90
20714;DHT22;10518;50.742;4.226;2022-10-17T04:50:38;17.80;99.90
20714;DHT22;10518;50.742;4.226;2022-10-17T04:53:03;17.80;99.90
20714;DHT22;10518;50.742;4.226;2022-10-17T04:55:29;17.50;99.90
20714;DHT22;10518;50.742;4.226;2022-10-17T04:57:54;17.50;99.90
20714;DHT22;10518;50.742;4.226;2022-10-17T05:00:20;17.60;99.90
20714;DHT22;10518;50.742;4.226;2022-10-17T05:02:45;17.70;99.90
20714;DHT22;10518;50.742;4.226;2022-10-17T05:05:11;17.60;99.90
20714;DHT22;10518;50.742;4.226;2022-10-17T05:07:40;17.50;99.90
20714;DHT22;10518;50.742;4.226;2022-10-17T05:10:06;17.70;99.90
20714;DHT22;10518;50.742;4.226;2022-10-17T05:12:31;18.00;99.90
20714;DHT22;10518;50.742;4.226;2022-10-17T05:14:57;18.10;99.90
20714;DHT22;10518;50.742;4.226;2022-10-17T05:17:23;17.90;99.90
20714;DHT22;10518;50.742;4.226;2022-10-17T05:19:48;17.80;99.90
20714;DHT22;10518;50.742;4.226;2022-10-17T05:22:14;17.70;99.90
20714;DHT22;10518;50.742;4.226;2022-10-17T05:24:39;17.90;99.90
20714;DHT22;10518;50.742;4.226;2022-10-17T05:27:05;18.00;99.90
20714;DHT22;10518;50.742;4.226;2022-10-17T05:29:30;18.10;99.90
20714;DHT22;10518;50.742;4.226;2022-10-17T05:31:56;18.10;99.90
20714;DHT22;10518;50.742;4.226;2022-10-17T05:34:22;18.10;99.90
20714;DHT22;10518;50.742;4.226;2022-10-17T05:36:47;17.90;99.90
20714;DHT22;10518;50.742;4.226;2022-10-17T05:39:13;17.90;99.90
20714;DHT22;10518;50.742;4.226;2022-10-17T05:41:39;18.00;99.90
20714;DHT22;10518;50.742;4.226;2022-10-17T05:44:05;17.90;99.90
20714;DHT22;10518;50.742;4.226;2022-10-17T05:46:30;18.00;99.90
20714;DHT22;10518;50.742;4.226;2022-10-17T05:48:56;18.10;99.90
20714;DHT22;10518;50.742;4.226;2022-10-17T05:51:21;18.00;99.90
20714;DHT22;10518;50.742;4.226;2022-10-17T05:53:47;17.80;99.90
20714;DHT22;10518;50.742;4.226;2022-10-17T05:56:12;17.90;99.90
20714;DHT22;10518;50.742;4.226;2022-10-17T05:58:42;17.80;99.90
20714;DHT22;10518;50.742;4.226;2022-10-17T06:01:11;18.00;99.90
20714;DHT22;10518;50.742;4.226;2022-10-17T06:03:37;18.20;99.90
20714;DHT22;10518;50.742;4.226;2022-10-17T06:06:05;18.10;99.90
20714;DHT22;10518;50.742;4.226;2022-10-17T06:08:31;18.20;99.90
20714;DHT22;10518;50.742;4.226;2022-10-17T06:10:57;18.10;99.90
20714;DHT22;10518;50.742;4.226;2022-10-17T06:13:22;18.00;99.90
20714;DHT22;10518;50.742;4.226;2022-10-17T06:15:48;18.20;99.90
20714;DHT22;10518;50.742;4.226;2022-10-17T06:18:13;18.10;99.90
20714;DHT22;10518;50.742;4.226;2022-10-17T06:20:39;18.20;99.90
20714;DHT22;10518;50.742;4.226;2022-10-17T06:23:05;18.30;99.90
20714;DHT22;10518;50.742;4.226;2022-10-17T06:25:31;18.10;99.90
20714;DHT22;10518;50.742;4.226;2022-10-17T06:27:57;18.10;99.90
20714;DHT22;10518;50.742;4.226;2022-10-17T06:30:23;18.30;99.90
20714;DHT22;10518;50.742;4.226;2022-10-17T06:32:49;18.40;99.90
20714;DHT22;10518;50.742;4.226;2022-10-17T06:35:15;18.60;99.90
20714;DHT22;10518;50.742;4.226;2022-10-17T06:37:41;18.70;99.90
20714;DHT22;10518;50.742;4.226;2022-10-17T06:40:07;18.60;99.90
20714;DHT22;10518;50.742;4.226;2022-10-17T06:42:34;18.70;99.90
20714;DHT22;10518;50.742;4.226;2022-10-17T06:45:00;18.70;99.90
20714;DHT22;10518;50.742;4.226;2022-10-17T06:47:25;18.90;99.90
20714;DHT22;10518;50.742;4.226;2022-10-17T06:49:51;19.20;99.90
20714;DHT22;10518;50.742;4.226;2022-10-17T06:52:17;18.90;99.90
20714;DHT22;10518;50.742;4.226;2022-10-17T06:54:43;18.50;99.90
20714;DHT22;10518;50.742;4.226;2022-10-17T06:57:09;18.70;99.90
20714;DHT22;10518;50.742;4.226;2022-10-17T06:59:34;18.50;99.90
20714;DHT22;10518;50.742;4.226;2022-10-17T07:02:00;18.50;99.90
20714;DHT22;10518;50.742;4.226;2022-10-17T07:04:26;18.70;99.90
20714;DHT22;10518;50.742;4.226;2022-10-17T07:06:52;18.60;99.90
20714;DHT22;10518;50.742;4.226;2022-10-17T07:09:17;18.60;99.90
20714;DHT22;10518;50.742;4.226;2022-10-17T07:11:43;19.00;99.90
20714;DHT22;10518;50.742;4.226;2022-10-17T07:14:09;19.10;99.90
20714;DHT22;10518;50.742;4.226;2022-10-17T07:16:35;19.20;99.90
20714;DHT22;10518;50.742;4.226;2022-10-17T07:19:01;19.30;99.90
20714;DHT22;10518;50.742;4.226;2022-10-17T07:21:26;19.40;99.90
20714;DHT22;10518;50.742;4.226;2022-10-17T07:23:52;19.50;99.90
20714;DHT22;10518;50.742;4.226;2022-10-17T07:26:18;19.30;99.90
20714;DHT22;10518;50.742;4.226;2022-10-17T07:28:45;19.30;99.90
20714;DHT22;10518;50.742;4.226;2022-10-17T07:31:17;19.10;99.90
20714;DHT22;10518;50.742;4.226;2022-10-17T07:33:43;19.00;99.90
20714;DHT22;10518;50.742;4.226;2022-10-17T07:36:09;19.00;99.90
20714;DHT22;10518;50.742;4.226;2022-10-17T07:38:35;18.90;99.90
20714;DHT22;10518;50.742;4.226;2022-10-17T07:41:03;19.00;99.90
20714;DHT22;10518;50.742;4.226;2022-10-17T07:43:30;18.90;99.90
20714;DHT22;10518;50.742;4.226;2022-10-17T07:45:56;18.90;99.90
20714;DHT22;10518;50.742;4.226;2022-10-17T07:48:23;18.50;99.90
20714;DHT22;10518;50.742;4.226;2022-10-17T07:50:49;18.30;99.90
20714;DHT22;10518;50.742;4.226;2022-10-17T07:53:14;18.20;99.90
20714;DHT22;10518;50.742;4.226;2022-10-17T07:55:41;18.20;99.90
20714;DHT22;10518;50.742;4.226;2022-10-17T07:58:07;18.10;99.90
20714;DHT22;10518;50.742;4.226;2022-10-17T08:00:34;18.10;99.90
20714;DHT22;10518;50.742;4.226;2022-10-17T08:02:59;18.20;99.90
20714;DHT22;10518;50.742;4.226;2022-10-17T08:05:25;18.10;99.90
20714;DHT22;10518;50.742;4.226;2022-10-17T08:07:51;18.30;99.90
20714;DHT22;10518;50.742;4.226;2022-10-17T08:10:16;18.50;99.90
20714;DHT22;10518;50.742;4.226;2022-10-17T08:12:42;18.50;99.90
20714;DHT22;10518;50.742;4.226;2022-10-17T08:15:08;18.50;99.90
20714;DHT22;10518;50.742;4.226;2022-10-17T08:17:35;18.30;99.90
20714;DHT22;10518;50.742;4.226;2022-10-17T08:20:02;18.10;99.90
20714;DHT22;10518;50.742;4.226;2022-10-17T08:22:28;18.10;99.90
20714;DHT22;10518;50.742;4.226;2022-10-17T08:24:53;18.10;99.90
20714;DHT22;10518;50.742;4.226;2022-10-17T08:27:19;18.10;99.90
20714;DHT22;10518;50.742;4.226;2022-10-17T08:29:52;18.00;99.90
20714;DHT22;10518;50.742;4.226;2022-10-17T08:32:19;18.00;99.90
20714;DHT22;10518;50.742;4.226;2022-10-17T08:34:45;18.10;99.90
20714;DHT22;10518;50.742;4.226;2022-10-17T08:37:11;18.10;99.90
20714;DHT22;10518;50.742;4.226;2022-10-17T08:39:39;18.10;99.90
20714;DHT22;10518;50.742;4.226;2022-10-17T08:42:10;18.00;99.90
20714;DHT22;10518;50.742;4.226;2022-10-17T08:47:26;18.20;99.90
20714;DHT22;10518;50.742;4.226;2022-10-17T08:49:55;18.30;99.90
20714;DHT22;10518;50.742;4.226;2022-10-17T08:52:52;18.50;99.90
20714;DHT22;10518;50.742;4.226;2022-10-17T08:55:24;18.50;99.90
20714;DHT22;10518;50.742;4.226;2022-10-17T08:57:52;18.60;99.90
20714;DHT22;10518;50.742;4.226;2022-10-17T09:00:19;18.70;99.90
20714;DHT22;10518;50.742;4.226;2022-10-17T09:02:49;18.70;99.90
20714;DHT22;10518;50.742;4.226;2022-10-17T09:08:01;18.40;99.90
20714;DHT22;10518;50.742;4.226;2022-10-17T09:18:42;18.70;99.90
20714;DHT22;10518;50.742;4.226;2022-10-17T09:21:32;18.70;99.90
20714;DHT22;10518;50.742;4.226;2022-10-17T09:24:03;18.60;99.90
20714;DHT22;10518;50.742;4.226;2022-10-17T09:26:31;18.50;99.90
20714;DHT22;10518;50.742;4.226;2022-10-17T09:28:58;18.60;99.90
20714;DHT22;10518;50.742;4.226;2022-10-17T09:31:29;18.60;99.90
20714;DHT22;10518;50.742;4.226;2022-10-17T09:34:00;18.70;99.90
20714;DHT22;10518;50.742;4.226;2022-10-17T09:36:29;18.80;99.90
20714;DHT22;10518;50.742;4.226;2022-10-17T09:39:02;18.70;99.90
20714;DHT22;10518;50.742;4.226;2022-10-17T09:44:14;18.70;99.90
20714;DHT22;10518;50.742;4.226;2022-10-17T09:46:40;18.80;99.90
20714;DHT22;10518;50.742;4.226;2022-10-17T09:49:24;18.70;99.90
20714;DHT22;10518;50.742;4.226;2022-10-17T09:51:50;18.60;99.90
20714;DHT22;10518;50.742;4.226;2022-10-17T09:54:25;18.60;99.90
20714;DHT22;10518;50.742;4.226;2022-10-17T09:57:07;18.80;99.90
20714;DHT22;10518;50.742;4.226;2022-10-17T09:59:35;18.70;99.90
20714;DHT22;10518;50.742;4.226;2022-10-17T10:02:20;18.70;99.90
20714;DHT22;10518;50.742;4.226;2022-10-17T10:05:03;18.70;99.90
20714;DHT22;10518;50.742;4.226;2022-10-17T10:07:32;18.80;99.90
20714;DHT22;10518;50.742;4.226;2022-10-17T10:09:59;18.90;99.90
20714;DHT22;10518;50.742;4.226;2022-10-17T10:12:34;19.10;99.90
20714;DHT22;10518;50.742;4.226;2022-10-17T10:15:00;19.40;99.90
20714;DHT22;10518;50.742;4.226;2022-10-17T10:17:40;19.20;99.90
20714;DHT22;10518;50.742;4.226;2022-10-17T10:20:28;19.00;99.90
20714;DHT22;10518;50.742;4.226;2022-10-17T10:23:14;18.90;99.90
20714;DHT22;10518;50.742;4.226;2022-10-17T10:25:54;19.00;99.90
20714;DHT22;10518;50.742;4.226;2022-10-17T10:28:22;19.10;99.90
20714;DHT22;10518;50.742;4.226;2022-10-17T10:30:50;19.30;99.90
20714;DHT22;10518;50.742;4.226;2022-10-17T10:33:22;19.40;99.90
20714;DHT22;10518;50.742;4.226;2022-10-17T10:36:08;19.40;99.90
20714;DHT22;10518;50.742;4.226;2022-10-17T10:38:34;19.50;99.90
20714;DHT22;10518;50.742;4.226;2022-10-17T10:41:09;19.40;99.90
20714;DHT22;10518;50.742;4.226;2022-10-17T10:43:42;19.50;99.90
20714;DHT22;10518;50.742;4.226;2022-10-17T10:46:37;19.50;99.90
20714;DHT22;10518;50.742;4.226;2022-10-17T10:49:03;19.70;99.90
20714;DHT22;10518;50.742;4.226;2022-10-17T10:51:37;19.50;99.90
20714;DHT22;10518;50.742;4.226;2022-10-17T10:54:15;19.30;99.90
20714;DHT22;10518;50.742;4.226;2022-10-17T10:57:03;19.20;99.90
20714;DHT22;10518;50.742;4.226;2022-10-17T10:59:36;19.20;99.90
20714;DHT22;10518;50.742;4.226;2022-10-17T11:05:34;19.20;99.90
20714;DHT22;10518;50.742;4.226;2022-10-17T11:13:20;19.80;99.90
20714;DHT22;10518;50.742;4.226;2022-10-17T11:18:52;19.60;99.90
20714;DHT22;10518;50.742;4.226;2022-10-17T11:24:09;19.80;99.90
20714;DHT22;10518;50.742;4.226;2022-10-17T11:27:03;19.80;99.90
20714;DHT22;10518;50.742;4.226;2022-10-17T11:29:30;19.60;99.90
20714;DHT22;10518;50.742;4.226;2022-10-17T11:32:21;19.80;99.90
20714;DHT22;10518;50.742;4.226;2022-10-17T11:34:48;19.80;99.90
20714;DHT22;10518;50.742;4.226;2022-10-17T11:37:19;19.60;99.90
20714;DHT22;10518;50.742;4.226;2022-10-17T11:39:53;19.50;99.90
20714;DHT22;10518;50.742;4.226;2022-10-17T11:42:33;19.60;99.90
20714;DHT22;10518;50.742;4.226;2022-10-17T11:45:05;19.50;99.90
20714;DHT22;10518;50.742;4.226;2022-10-17T11:47:38;19.50;99.90
20714;DHT22;10518;50.742;4.226;2022-10-17T11:50:29;19.80;99.90
20714;DHT22;10518;50.742;4.226;2022-10-17T11:53:00;20.20;99.90
20714;DHT22;10518;50.742;4.226;2022-10-17T11:55:29;20.20;99.90
20714;DHT22;10518;50.742;4.226;2022-10-17T11:58:05;20.20;99.90
20714;DHT22;10518;50.742;4.226;2022-10-17T12:03:56;19.70;99.90
20714;DHT22;10518;50.742;4.226;2022-10-17T12:11:59;20.20;99.90
20714;DHT22;10518;50.742;4.226;2022-10-17T12:14:47;20.40;99.90
20714;DHT22;10518;50.742;4.226;2022-10-17T12:17:33;20.10;99.90
20714;DHT22;10518;50.742;4.226;2022-10-17T12:20:30;20.00;99.90
20714;DHT22;10518;50.742;4.226;2022-10-17T12:25:37;19.70;99.90
20714;DHT22;10518;50.742;4.226;2022-10-17T12:28:27;19.70;99.90
20714;DHT22;10518;50.742;4.226;2022-10-17T12:33:46;19.80;99.90
20714;DHT22;10518;50.742;4.226;2022-10-17T12:38:49;19.60;99.90
20714;DHT22;10518;50.742;4.226;2022-10-17T12:41:15;19.50;99.90
20714;DHT22;10518;50.742;4.226;2022-10-17T12:43:51;19.50;99.90
20714;DHT22;10518;50.742;4.226;2022-10-17T12:54:58;19.90;99.90
20714;DHT22;10518;50.742;4.226;2022-10-17T13:02:44;20.00;99.90
20714;DHT22;10518;50.742;4.226;2022-10-17T13:05:19;20.10;99.90
20714;DHT22;10518;50.742;4.226;2022-10-17T13:07:48;20.00;99.90
20714;DHT22;10518;50.742;4.226;2022-10-17T13:10:24;20.30;99.90
20714;DHT22;10518;50.742;4.226;2022-10-17T13:12:53;20.10;99.90
20714;DHT22;10518;50.742;4.226;2022-10-17T13:15:21;20.30;99.90
20714;DHT22;10518;50.742;4.226;2022-10-17T13:17:58;20.20;99.90
20714;DHT22;10518;50.742;4.226;2022-10-17T13:20:26;20.30;99.90
20714;DHT22;10518;50.742;4.226;2022-10-17T13:22:53;20.40;99.90
20714;DHT22;10518;50.742;4.226;2022-10-17T13:25:19;20.50;99.90
20714;DHT22;10518;50.742;4.226;2022-10-17T13:27:46;20.40;99.90
20714;DHT22;10518;50.742;4.226;2022-10-17T13:30:30;20.40;99.90
20714;DHT22;10518;50.742;4.226;2022-10-17T13:32:56;20.60;99.90
20714;DHT22;10518;50.742;4.226;2022-10-17T13:35:28;20.40;99.90
20714;DHT22;10518;50.742;4.226;2022-10-17T13:37:55;20.30;99.90
20714;DHT22;10518;50.742;4.226;2022-10-17T13:40:27;20.10;99.90
20714;DHT22;10518;50.742;4.226;2022-10-17T13:42:56;20.20;99.90
20714;DHT22;10518;50.742;4.226;2022-10-17T13:45:32;20.30;99.90
20714;DHT22;10518;50.742;4.226;2022-10-17T13:48:01;20.10;99.90
20714;DHT22;10518;50.742;4.226;2022-10-17T13:50:32;20.30;99.90
20714;DHT22;10518;50.742;4.226;2022-10-17T13:53:16;20.20;99.90
20714;DHT22;10518;50.742;4.226;2022-10-17T13:55:53;20.00;99.90
20714;DHT22;10518;50.742;4.226;2022-10-17T13:58:19;20.00;99.90
20714;DHT22;10518;50.742;4.226;2022-10-17T14:00:46;20.00;99.90
20714;DHT22;10518;50.742;4.226;2022-10-17T14:03:13;20.10;99.90
20714;DHT22;10518;50.742;4.226;2022-10-17T14:08:24;20.00;99.90
20714;DHT22;10518;50.742;4.226;2022-10-17T14:10:50;19.90;99.90
20714;DHT22;10518;50.742;4.226;2022-10-17T14:13:29;19.80;99.90
20714;DHT22;10518;50.742;4.226;2022-10-17T14:15:59;19.90;99.90
20714;DHT22;10518;50.742;4.226;2022-10-17T14:18:35;19.90;99.90
20714;DHT22;10518;50.742;4.226;2022-10-17T14:21:02;19.80;99.90
20714;DHT22;10518;50.742;4.226;2022-10-17T14:23:37;20.00;99.90
20714;DHT22;10518;50.742;4.226;2022-10-17T14:26:09;19.90;99.90
20714;DHT22;10518;50.742;4.226;2022-10-17T14:28:35;19.90;99.90
20714;DHT22;10518;50.742;4.226;2022-10-17T14:31:17;19.90;99.90
20714;DHT22;10518;50.742;4.226;2022-10-17T14:33:45;19.90;99.90
20714;DHT22;10518;50.742;4.226;2022-10-17T14:36:11;19.90;99.90
20714;DHT22;10518;50.742;4.226;2022-10-17T14:38:37;19.90;99.90
20714;DHT22;10518;50.742;4.226;2022-10-17T14:41:25;19.80;99.90
20714;DHT22;10518;50.742;4.226;2022-10-17T14:44:00;19.90;99.90
20714;DHT22;10518;50.742;4.226;2022-10-17T14:46:26;19.90;99.90
20714;DHT22;10518;50.742;4.226;2022-10-17T14:48:55;20.00;99.90
20714;DHT22;10518;50.742;4.226;2022-10-17T14:51:21;19.90;99.90
20714;DHT22;10518;50.742;4.226;2022-10-17T14:56:49;19.80;99.90
20714;DHT22;10518;50.742;4.226;2022-10-17T14:59:16;19.80;99.90
20714;DHT22;10518;50.742;4.226;2022-10-17T15:01:47;20.00;99.90
20714;DHT22;10518;50.742;4.226;2022-10-17T15:04:13;19.80;99.90
20714;DHT22;10518;50.742;4.226;2022-10-17T15:06:39;19.70;99.90
20714;DHT22;10518;50.742;4.226;2022-10-17T15:09:05;19.60;99.90
20714;DHT22;10518;50.742;4.226;2022-10-17T15:11:30;19.70;99.90
20714;DHT22;10518;50.742;4.226;2022-10-17T15:13:56;19.80;99.90
20714;DHT22;10518;50.742;4.226;2022-10-17T15:16:24;19.70;99.90
20714;DHT22;10518;50.742;4.226;2022-10-17T15:18:50;19.70;99.90
20714;DHT22;10518;50.742;4.226;2022-10-17T15:21:18;19.70;99.90
20714;DHT22;10518;50.742;4.226;2022-10-17T15:23:44;19.70;99.90
20714;DHT22;10518;50.742;4.226;2022-10-17T15:26:16;19.70;99.90
20714;DHT22;10518;50.742;4.226;2022-10-17T15:28:42;19.70;99.90
20714;DHT22;10518;50.742;4.226;2022-10-17T15:31:11;19.60;99.90
20714;DHT22;10518;50.742;4.226;2022-10-17T15:33:37;19.60;99.90
20714;DHT22;10518;50.742;4.226;2022-10-17T15:36:03;19.60;99.90
20714;DHT22;10518;50.742;4.226;2022-10-17T15:38:28;19.60;99.90
20714;DHT22;10518;50.742;4.226;2022-10-17T15:40:54;19.60;99.90
20714;DHT22;10518;50.742;4.226;2022-10-17T15:43:19;19.60;99.90
20714;DHT22;10518;50.742;4.226;2022-10-17T15:45:45;19.50;99.90
20714;DHT22;10518;50.742;4.226;2022-10-17T15:48:18;19.50;99.90
20714;DHT22;10518;50.742;4.226;2022-10-17T15:50:44;19.50;99.90
20714;DHT22;10518;50.742;4.226;2022-10-17T15:53:13;19.50;99.90
20714;DHT22;10518;50.742;4.226;2022-10-17T15:55:39;19.50;99.90
20714;DHT22;10518;50.742;4.226;2022-10-17T15:58:05;19.40;99.90
20714;DHT22;10518;50.742;4.226;2022-10-17T16:00:30;19.30;99.90
20714;DHT22;10518;50.742;4.226;2022-10-17T16:02:56;19.40;99.90
20714;DHT22;10518;50.742;4.226;2022-10-17T16:05:23;19.40;99.90
20714;DHT22;10518;50.742;4.226;2022-10-17T16:07:54;19.40;99.90
20714;DHT22;10518;50.742;4.226;2022-10-17T16:10:21;19.40;99.90
20714;DHT22;10518;50.742;4.226;2022-10-17T16:12:47;19.30;99.90
20714;DHT22;10518;50.742;4.226;2022-10-17T16:15:20;19.30;99.90
20714;DHT22;10518;50.742;4.226;2022-10-17T16:17:50;19.20;99.90
20714;DHT22;10518;50.742;4.226;2022-10-17T16:20:17;19.20;99.90
20714;DHT22;10518;50.742;4.226;2022-10-17T16:22:43;19.10;99.90
20714;DHT22;10518;50.742;4.226;2022-10-17T16:25:21;19.10;99.90
20714;DHT22;10518;50.742;4.226;2022-10-17T16:27:49;19.10;99.90
20714;DHT22;10518;50.742;4.226;2022-10-17T16:30:15;19.00;99.90
20714;DHT22;10518;50.742;4.226;2022-10-17T16:32:41;19.10;99.90
20714;DHT22;10518;50.742;4.226;2022-10-17T16:35:07;19.10;99.90
20714;DHT22;10518;50.742;4.226;2022-10-17T16:37:33;18.90;99.90
20714;DHT22;10518;50.742;4.226;2022-10-17T16:40:00;18.90;99.90
20714;DHT22;10518;50.742;4.226;2022-10-17T16:42:26;18.80;99.90
20714;DHT22;10518;50.742;4.226;2022-10-17T16:44:51;18.80;99.90
20714;DHT22;10518;50.742;4.226;2022-10-17T16:47:18;18.80;99.90
20714;DHT22;10518;50.742;4.226;2022-10-17T16:49:43;18.80;99.90
20714;DHT22;10518;50.742;4.226;2022-10-17T16:52:10;18.80;99.90
20714;DHT22;10518;50.742;4.226;2022-10-17T16:54:35;18.70;99.90
20714;DHT22;10518;50.742;4.226;2022-10-17T16:57:01;18.70;99.90
20714;DHT22;10518;50.742;4.226;2022-10-17T16:59:27;18.70;99.90
20714;DHT22;10518;50.742;4.226;2022-10-17T17:01:53;18.60;99.90
20714;DHT22;10518;50.742;4.226;2022-10-17T17:04:19;18.70;99.90
20714;DHT22;10518;50.742;4.226;2022-10-17T17:06:44;18.70;99.90
20714;DHT22;10518;50.742;4.226;2022-10-17T17:09:10;18.70;99.90
20714;DHT22;10518;50.742;4.226;2022-10-17T17:11:36;18.70;99.90
20714;DHT22;10518;50.742;4.226;2022-10-17T17:14:03;18.60;99.90
20714;DHT22;10518;50.742;4.226;2022-10-17T17:16:30;18.50;99.90
20714;DHT22;10518;50.742;4.226;2022-10-17T17:19:05;18.60;99.90
20714;DHT22;10518;50.742;4.226;2022-10-17T17:21:32;18.60;99.90
20714;DHT22;10518;50.742;4.226;2022-10-17T17:23:59;18.60;99.90
20714;DHT22;10518;50.742;4.226;2022-10-17T17:26:27;18.40;99.90